sensor_id;sensor_type;location;lat;lon;timestamp;temperature;humidity
4052;DHT22;2040;50.924;11.604;2022-12-13T00:00:40;-8.70;99.90
4052;DHT22;2040;50.924;11.604;2022-12-13T00:03:06;-8.80;99.90
4052;DHT22;2040;50.924;11.604;2022-12-13T00:05:32;-9.00;99.90
4052;DHT22;2040;50.924;11.604;2022-12-13T00:07:59;-9.20;99.90
4052;DHT22;2040;50.924;11.604;2022-12-13T00:10:26;-9.30;99.90
4052;DHT22;2040;50.924;11.604;2022-12-13T00:12:52;-9.10;99.90
4052;DHT22;2040;50.924;11.604;2022-12-13T00:15:18;-9.10;99.90
4052;DHT22;2040;50.924;11.604;2022-12-13T00:17:44;-9.20;99.90
4052;DHT22;2040;50.924;11.604;2022-12-13T00:20:10;-9.30;99.90
4052;DHT22;2040;50.924;11.604;2022-12-13T00:22:36;-9.40;99.90
4052;DHT22;2040;50.924;11.604;2022-12-13T00:25:02;-9.60;99.90
4052;DHT22;2040;50.924;11.604;2022-12-13T00:27:27;-9.60;99.90
4052;DHT22;2040;50.924;11.604;2022-12-13T00:29:53;-9.30;99.90
4052;DHT22;2040;50.924;11.604;2022-12-13T00:32:19;-9.00;99.90
4052;DHT22;2040;50.924;11.604;2022-12-13T00:34:44;-9.10;99.90
4052;DHT22;2040;50.924;11.604;2022-12-13T00:37:10;-9.20;99.90
4052;DHT22;2040;50.924;11.604;2022-12-13T00:39:36;-9.40;99.90
4052;DHT22;2040;50.924;11.604;2022-12-13T00:42:01;-9.60;99.90
4052;DHT22;2040;50.924;11.604;2022-12-13T00:44:27;-9.60;99.90
4052;DHT22;2040;50.924;11.604;2022-12-13T00:46:52;-9.50;99.90
4052;DHT22;2040;50.924;11.604;2022-12-13T00:49:19;-9.30;99.90
4052;DHT22;2040;50.924;11.604;2022-12-13T00:51:44;-9.00;99.90
4052;DHT22;2040;50.924;11.604;2022-12-13T00:54:12;-9.00;99.90
4052;DHT22;2040;50.924;11.604;2022-12-13T00:56:38;-9.10;99.90
4052;DHT22;2040;50.924;11.604;2022-12-13T00:59:03;-9.30;99.90
4052;DHT22;2040;50.924;11.604;2022-12-13T01:01:31;-9.40;99.90
4052;DHT22;2040;50.924;11.604;2022-12-13T01:04:00;-9.60;99.90
4052;DHT22;2040;50.924;11.604;2022-12-13T01:06:42;-9.70;99.90
4052;DHT22;2040;50.924;11.604;2022-12-13T01:09:20;-9.80;99.90
4052;DHT22;2040;50.924;11.604;2022-12-13T01:11:46;-9.70;99.90
4052;DHT22;2040;50.924;11.604;2022-12-13T01:14:14;-9.50;99.90
4052;DHT22;2040;50.924;11.604;2022-12-13T01:16:39;-9.60;99.90
4052;DHT22;2040;50.924;11.604;2022-12-13T01:19:05;-9.70;99.90
4052;DHT22;2040;50.924;11.604;2022-12-13T01:21:31;-9.70;99.90
4052;DHT22;2040;50.924;11.604;2022-12-13T01:24:04;-9.80;99.90
4052;DHT22;2040;50.924;11.604;2022-12-13T01:26:30;-9.70;99.90
4052;DHT22;2040;50.924;11.604;2022-12-13T01:28:56;-9.60;99.90
4052;DHT22;2040;50.924;11.604;2022-12-13T01:31:22;-9.50;99.90
4052;DHT22;2040;50.924;11.604;2022-12-13T01:33:48;-9.70;99.90
4052;DHT22;2040;50.924;11.604;2022-12-13T01:36:16;-9.80;99.90
4052;DHT22;2040;50.924;11.604;2022-12-13T01:38:42;-10.00;99.90
4052;DHT22;2040;50.924;11.604;2022-12-13T01:41:12;-10.10;99.90
4052;DHT22;2040;50.924;11.604;2022-12-13T01:46:07;-10.00;99.90
4052;DHT22;2040;50.924;11.604;2022-12-13T01:48:37;-9.90;99.90
4052;DHT22;2040;50.924;11.604;2022-12-13T01:51:06;-10.00;99.90
4052;DHT22;2040;50.924;11.604;2022-12-13T01:53:35;-10.10;99.90
4052;DHT22;2040;50.924;11.604;2022-12-13T01:56:21;-10.10;99.90
4052;DHT22;2040;50.924;11.604;2022-12-13T01:58:48;-10.10;99.90
4052;DHT22;2040;50.924;11.604;2022-12-13T02:01:16;-10.10;99.90
4052;DHT22;2040;50.924;11.604;2022-12-13T02:03:43;-10.10;99.90
4052;DHT22;2040;50.924;11.604;2022-12-13T02:06:16;-10.20;99.90
4052;DHT22;2040;50.924;11.604;2022-12-13T02:08:44;-10.30;99.90
4052;DHT22;2040;50.924;11.604;2022-12-13T02:11:10;-10.30;99.90
4052;DHT22;2040;50.924;11.604;2022-12-13T02:13:36;-10.30;99.90
4052;DHT22;2040;50.924;11.604;2022-12-13T02:18:53;-10.30;99.90
4052;DHT22;2040;50.924;11.604;2022-12-13T02:24:47;-10.30;99.90
4052;DHT22;2040;50.924;11.604;2022-12-13T02:27:50;-10.30;99.90
4052;DHT22;2040;50.924;11.604;2022-12-13T02:30:29;-10.20;99.90
4052;DHT22;2040;50.924;11.604;2022-12-13T02:36:04;-9.80;99.90
4052;DHT22;2040;50.924;11.604;2022-12-13T02:42:02;-9.90;99.90
4052;DHT22;2040;50.924;11.604;2022-12-13T02:46:48;-10.10;99.90
4052;DHT22;2040;50.924;11.604;2022-12-13T02:49:18;-10.30;99.90
4052;DHT22;2040;50.924;11.604;2022-12-13T02:51:44;-10.50;99.90
4052;DHT22;2040;50.924;11.604;2022-12-13T02:54:11;-10.60;99.90
4052;DHT22;2040;50.924;11.604;2022-12-13T02:56:37;-10.60;99.90
4052;DHT22;2040;50.924;11.604;2022-12-13T02:59:06;-10.60;99.90
4052;DHT22;2040;50.924;11.604;2022-12-13T03:08:22;-9.90;99.90
4052;DHT22;2040;50.924;11.604;2022-12-13T03:11:03;-9.90;99.90
4052;DHT22;2040;50.924;11.604;2022-12-13T03:16:28;-10.00;99.90
4052;DHT22;2040;50.924;11.604;2022-12-13T03:18:58;-10.30;99.90
4052;DHT22;2040;50.924;11.604;2022-12-13T03:21:25;-10.50;99.90
4052;DHT22;2040;50.924;11.604;2022-12-13T03:23:50;-10.50;99.90
4052;DHT22;2040;50.924;11.604;2022-12-13T03:26:20;-10.50;99.90
4052;DHT22;2040;50.924;11.604;2022-12-13T03:28:46;-10.20;99.90
4052;DHT22;2040;50.924;11.604;2022-12-13T03:31:11;-9.80;99.90
4052;DHT22;2040;50.924;11.604;2022-12-13T03:33:37;-9.60;99.90
4052;DHT22;2040;50.924;11.604;2022-12-13T03:36:04;-9.60;99.90
4052;DHT22;2040;50.924;11.604;2022-12-13T03:38:30;-9.80;99.90
4052;DHT22;2040;50.924;11.604;2022-12-13T03:40:59;-10.00;99.90
4052;DHT22;2040;50.924;11.604;2022-12-13T03:43:26;-10.00;99.90
4052;DHT22;2040;50.924;11.604;2022-12-13T03:45:53;-10.30;99.90
4052;DHT22;2040;50.924;11.604;2022-12-13T03:48:19;-10.50;99.90
4052;DHT22;2040;50.924;11.604;2022-12-13T03:50:44;-10.50;99.90
4052;DHT22;2040;50.924;11.604;2022-12-13T03:53:10;-10.60;99.90
4052;DHT22;2040;50.924;11.604;2022-12-13T03:55:35;-10.60;99.90
4052;DHT22;2040;50.924;11.604;2022-12-13T03:58:01;-10.50;99.90
4052;DHT22;2040;50.924;11.604;2022-12-13T04:00:27;-10.40;99.90
4052;DHT22;2040;50.924;11.604;2022-12-13T04:02:52;-10.40;99.90
4052;DHT22;2040;50.924;11.604;2022-12-13T04:05:18;-10.40;99.90
4052;DHT22;2040;50.924;11.604;2022-12-13T04:07:43;-10.20;99.90
4052;DHT22;2040;50.924;11.604;2022-12-13T04:10:09;-10.20;99.90
4052;DHT22;2040;50.924;11.604;2022-12-13T04:12:35;-10.40;99.90
4052;DHT22;2040;50.924;11.604;2022-12-13T04:15:19;-10.60;99.90
4052;DHT22;2040;50.924;11.604;2022-12-13T04:17:44;-10.80;99.90
4052;DHT22;2040;50.924;11.604;2022-12-13T04:20:10;-10.90;99.90
4052;DHT22;2040;50.924;11.604;2022-12-13T04:22:36;-10.90;99.90
4052;DHT22;2040;50.924;11.604;2022-12-13T04:25:03;-10.90;99.90
4052;DHT22;2040;50.924;11.604;2022-12-13T04:27:28;-10.80;99.90
4052;DHT22;2040;50.924;11.604;2022-12-13T04:29:54;-10.70;99.90
4052;DHT22;2040;50.924;11.604;2022-12-13T04:32:19;-10.60;99.90
4052;DHT22;2040;50.924;11.604;2022-12-13T04:34:45;-10.50;99.90
4052;DHT22;2040;50.924;11.604;2022-12-13T04:37:10;-10.70;99.90
4052;DHT22;2040;50.924;11.604;2022-12-13T04:39:36;-10.90;99.90
4052;DHT22;2040;50.924;11.604;2022-12-13T04:42:02;-11.10;99.90
4052;DHT22;2040;50.924;11.604;2022-12-13T04:44:28;-11.20;99.90
4052;DHT22;2040;50.924;11.604;2022-12-13T04:46:54;-11.20;99.90
4052;DHT22;2040;50.924;11.604;2022-12-13T04:49:19;-11.10;99.90
4052;DHT22;2040;50.924;11.604;2022-12-13T04:51:45;-11.10;99.90
4052;DHT22;2040;50.924;11.604;2022-12-13T04:54:11;-11.10;99.90
4052;DHT22;2040;50.924;11.604;2022-12-13T04:56:36;-11.10;99.90
4052;DHT22;2040;50.924;11.604;2022-12-13T04:59:02;-11.00;99.90
4052;DHT22;2040;50.924;11.604;2022-12-13T05:01:28;-10.90;99.90
4052;DHT22;2040;50.924;11.604;2022-12-13T05:03:54;-10.90;99.90
4052;DHT22;2040;50.924;11.604;2022-12-13T05:06:19;-10.90;99.90
4052;DHT22;2040;50.924;11.604;2022-12-13T05:08:45;-11.10;99.90
4052;DHT22;2040;50.924;11.604;2022-12-13T05:11:10;-11.10;99.90
4052;DHT22;2040;50.924;11.604;2022-12-13T05:13:36;-11.10;99.90
4052;DHT22;2040;50.924;11.604;2022-12-13T05:16:04;-11.10;99.90
4052;DHT22;2040;50.924;11.604;2022-12-13T05:18:31;-10.90;99.90
4052;DHT22;2040;50.924;11.604;2022-12-13T05:21:04;-10.80;99.90
4052;DHT22;2040;50.924;11.604;2022-12-13T05:23:30;-10.80;99.90
4052;DHT22;2040;50.924;11.604;2022-12-13T05:25:56;-11.00;99.90
4052;DHT22;2040;50.924;11.604;2022-12-13T05:28:22;-11.10;99.90
4052;DHT22;2040;50.924;11.604;2022-12-13T05:30:51;-11.10;99.90
4052;DHT22;2040;50.924;11.604;2022-12-13T05:33:16;-11.10;99.90
4052;DHT22;2040;50.924;11.604;2022-12-13T05:35:42;-11.10;99.90
4052;DHT22;2040;50.924;11.604;2022-12-13T05:38:08;-11.10;99.90
4052;DHT22;2040;50.924;11.604;2022-12-13T05:40:34;-11.10;99.90
4052;DHT22;2040;50.924;11.604;2022-12-13T05:43:00;-11.20;99.90
4052;DHT22;2040;50.924;11.604;2022-12-13T05:45:26;-11.30;99.90
4052;DHT22;2040;50.924;11.604;2022-12-13T05:47:51;-11.30;99.90
4052;DHT22;2040;50.924;11.604;2022-12-13T05:50:17;-11.30;99.90
4052;DHT22;2040;50.924;11.604;2022-12-13T05:52:43;-11.40;99.90
4052;DHT22;2040;50.924;11.604;2022-12-13T05:55:09;-11.40;99.90
4052;DHT22;2040;50.924;11.604;2022-12-13T05:57:37;-11.30;99.90
4052;DHT22;2040;50.924;11.604;2022-12-13T06:00:07;-10.90;99.90
4052;DHT22;2040;50.924;11.604;2022-12-13T06:02:40;-10.90;99.90
4052;DHT22;2040;50.924;11.604;2022-12-13T06:05:07;-11.00;99.90
4052;DHT22;2040;50.924;11.604;2022-12-13T06:07:34;-11.00;99.90
4052;DHT22;2040;50.924;11.604;2022-12-13T06:10:00;-11.10;99.90
4052;DHT22;2040;50.924;11.604;2022-12-13T06:12:26;-11.20;99.90
4052;DHT22;2040;50.924;11.604;2022-12-13T06:14:51;-11.40;99.90
4052;DHT22;2040;50.924;11.604;2022-12-13T06:17:17;-11.40;99.90
4052;DHT22;2040;50.924;11.604;2022-12-13T06:19:43;-11.20;99.90
4052;DHT22;2040;50.924;11.604;2022-12-13T06:22:11;-11.20;99.90
4052;DHT22;2040;50.924;11.604;2022-12-13T06:24:36;-11.20;99.90
4052;DHT22;2040;50.924;11.604;2022-12-13T06:27:02;-11.40;99.90
4052;DHT22;2040;50.924;11.604;2022-12-13T06:29:30;-11.40;99.90
4052;DHT22;2040;50.924;11.604;2022-12-13T06:31:58;-11.50;99.90
4052;DHT22;2040;50.924;11.604;2022-12-13T06:34:24;-11.60;99.90
4052;DHT22;2040;50.924;11.604;2022-12-13T06:36:49;-11.60;99.90
4052;DHT22;2040;50.924;11.604;2022-12-13T06:39:16;-11.70;99.90
4052;DHT22;2040;50.924;11.604;2022-12-13T06:41:41;-11.60;99.90
4052;DHT22;2040;50.924;11.604;2022-12-13T06:44:07;-11.50;99.90
4052;DHT22;2040;50.924;11.604;2022-12-13T06:46:33;-11.50;99.90
4052;DHT22;2040;50.924;11.604;2022-12-13T06:48:59;-11.30;99.90
4052;DHT22;2040;50.924;11.604;2022-12-13T06:51:25;-11.10;99.90
4052;DHT22;2040;50.924;11.604;2022-12-13T06:53:51;-10.80;99.90
4052;DHT22;2040;50.924;11.604;2022-12-13T06:56:17;-10.80;99.90
4052;DHT22;2040;50.924;11.604;2022-12-13T06:58:43;-11.00;99.90
4052;DHT22;2040;50.924;11.604;2022-12-13T07:01:16;-11.10;99.90
4052;DHT22;2040;50.924;11.604;2022-12-13T07:03:42;-11.30;99.90
4052;DHT22;2040;50.924;11.604;2022-12-13T07:06:19;-11.50;99.90
4052;DHT22;2040;50.924;11.604;2022-12-13T07:08:54;-11.40;99.90
4052;DHT22;2040;50.924;11.604;2022-12-13T07:11:25;-11.50;99.90
4052;DHT22;2040;50.924;11.604;2022-12-13T07:13:51;-11.60;99.90
4052;DHT22;2040;50.924;11.604;2022-12-13T07:16:17;-11.70;99.90
4052;DHT22;2040;50.924;11.604;2022-12-13T07:18:43;-11.70;99.90
4052;DHT22;2040;50.924;11.604;2022-12-13T07:21:11;-11.40;99.90
4052;DHT22;2040;50.924;11.604;2022-12-13T07:23:37;-11.20;99.90
4052;DHT22;2040;50.924;11.604;2022-12-13T07:26:04;-11.20;99.90
4052;DHT22;2040;50.924;11.604;2022-12-13T07:28:36;-11.20;99.90
4052;DHT22;2040;50.924;11.604;2022-12-13T07:31:04;-11.40;99.90
4052;DHT22;2040;50.924;11.604;2022-12-13T07:33:30;-11.50;99.90
4052;DHT22;2040;50.924;11.604;2022-12-13T07:36:05;-11.60;99.90
4052;DHT22;2040;50.924;11.604;2022-12-13T07:38:32;-11.60;99.90
4052;DHT22;2040;50.924;11.604;2022-12-13T07:40:58;-11.30;99.90
4052;DHT22;2040;50.924;11.604;2022-12-13T07:43:24;-11.20;99.90
4052;DHT22;2040;50.924;11.604;2022-12-13T07:45:53;-10.90;99.90
4052;DHT22;2040;50.924;11.604;2022-12-13T07:48:18;-11.10;99.90
4052;DHT22;2040;50.924;11.604;2022-12-13T07:50:44;-11.20;99.90
4052;DHT22;2040;50.924;11.604;2022-12-13T07:53:10;-11.20;99.90
4052;DHT22;2040;50.924;11.604;2022-12-13T07:55:36;-11.30;99.90
4052;DHT22;2040;50.924;11.604;2022-12-13T07:58:10;-11.20;99.90
4052;DHT22;2040;50.924;11.604;2022-12-13T08:00:37;-11.30;99.90
4052;DHT22;2040;50.924;11.604;2022-12-13T08:03:04;-11.20;99.90
4052;DHT22;2040;50.924;11.604;2022-12-13T08:05:30;-11.20;99.90
4052;DHT22;2040;50.924;11.604;2022-12-13T08:07:56;-11.10;99.90
4052;DHT22;2040;50.924;11.604;2022-12-13T08:10:21;-11.00;99.90
4052;DHT22;2040;50.924;11.604;2022-12-13T08:12:47;-10.80;99.90
4052;DHT22;2040;50.924;11.604;2022-12-13T08:15:14;-10.70;99.90
4052;DHT22;2040;50.924;11.604;2022-12-13T08:17:40;-10.70;99.90
4052;DHT22;2040;50.924;11.604;2022-12-13T08:20:06;-10.60;99.90
4052;DHT22;2040;50.924;11.604;2022-12-13T08:22:32;-10.60;99.90
4052;DHT22;2040;50.924;11.604;2022-12-13T08:24:58;-10.50;99.90
4052;DHT22;2040;50.924;11.604;2022-12-13T08:27:23;-10.50;99.90
4052;DHT22;2040;50.924;11.604;2022-12-13T08:29:49;-10.40;99.90
4052;DHT22;2040;50.924;11.604;2022-12-13T08:32:14;-10.40;99.90
4052;DHT22;2040;50.924;11.604;2022-12-13T08:34:40;-10.30;99.90
4052;DHT22;2040;50.924;11.604;2022-12-13T08:37:06;-10.20;99.90
4052;DHT22;2040;50.924;11.604;2022-12-13T08:39:32;-10.10;99.90
4052;DHT22;2040;50.924;11.604;2022-12-13T08:42:15;-10.00;99.90
4052;DHT22;2040;50.924;11.604;2022-12-13T08:44:41;-9.90;99.90
4052;DHT22;2040;50.924;11.604;2022-12-13T08:47:07;-9.80;99.90
4052;DHT22;2040;50.924;11.604;2022-12-13T08:49:32;-9.80;99.90
4052;DHT22;2040;50.924;11.604;2022-12-13T08:51:58;-9.70;99.90
4052;DHT22;2040;50.924;11.604;2022-12-13T08:54:24;-9.60;99.90
4052;DHT22;2040;50.924;11.604;2022-12-13T08:56:52;-9.60;99.90
4052;DHT22;2040;50.924;11.604;2022-12-13T08:59:18;-9.60;99.90
4052;DHT22;2040;50.924;11.604;2022-12-13T09:01:44;-9.60;99.90
4052;DHT22;2040;50.924;11.604;2022-12-13T09:04:09;-9.60;99.90
4052;DHT22;2040;50.924;11.604;2022-12-13T09:06:35;-9.50;99.90
4052;DHT22;2040;50.924;11.604;2022-12-13T09:09:01;-9.50;99.90
4052;DHT22;2040;50.924;11.604;2022-12-13T09:11:27;-9.30;99.90
4052;DHT22;2040;50.924;11.604;2022-12-13T09:13:52;-9.20;99.90
4052;DHT22;2040;50.924;11.604;2022-12-13T09:16:20;-9.20;99.90
4052;DHT22;2040;50.924;11.604;2022-12-13T09:18:50;-9.10;99.90
4052;DHT22;2040;50.924;11.604;2022-12-13T09:21:16;-8.90;99.90
4052;DHT22;2040;50.924;11.604;2022-12-13T09:23:42;-9.00;99.90
4052;DHT22;2040;50.924;11.604;2022-12-13T09:26:10;-8.90;99.90
4052;DHT22;2040;50.924;11.604;2022-12-13T09:28:36;-8.80;99.90
4052;DHT22;2040;50.924;11.604;2022-12-13T09:33:32;-8.50;99.90
4052;DHT22;2040;50.924;11.604;2022-12-13T09:35:58;-8.50;99.90
4052;DHT22;2040;50.924;11.604;2022-12-13T09:38:25;-8.40;99.90
4052;DHT22;2040;50.924;11.604;2022-12-13T09:40:52;-8.30;99.90
4052;DHT22;2040;50.924;11.604;2022-12-13T09:43:23;-8.20;99.90
4052;DHT22;2040;50.924;11.604;2022-12-13T09:45:50;-8.00;99.90
4052;DHT22;2040;50.924;11.604;2022-12-13T09:48:18;-7.90;99.90
4052;DHT22;2040;50.924;11.604;2022-12-13T09:50:46;-7.80;99.90
4052;DHT22;2040;50.924;11.604;2022-12-13T09:53:14;-7.80;99.90
4052;DHT22;2040;50.924;11.604;2022-12-13T09:55:44;-7.70;99.90
4052;DHT22;2040;50.924;11.604;2022-12-13T09:58:30;-7.70;99.90
4052;DHT22;2040;50.924;11.604;2022-12-13T10:00:56;-7.50;99.90
4052;DHT22;2040;50.924;11.604;2022-12-13T10:03:23;-7.40;99.90
4052;DHT22;2040;50.924;11.604;2022-12-13T10:06:01;-7.40;99.90
4052;DHT22;2040;50.924;11.604;2022-12-13T10:08:35;-7.40;99.90
4052;DHT22;2040;50.924;11.604;2022-12-13T10:11:02;-7.10;99.90
4052;DHT22;2040;50.924;11.604;2022-12-13T10:13:40;-7.10;99.90
4052;DHT22;2040;50.924;11.604;2022-12-13T10:16:12;-7.10;99.90
4052;DHT22;2040;50.924;11.604;2022-12-13T10:18:41;-7.10;99.90
4052;DHT22;2040;50.924;11.604;2022-12-13T10:21:35;-7.10;99.90
4052;DHT22;2040;50.924;11.604;2022-12-13T10:26:43;-6.70;99.90
4052;DHT22;2040;50.924;11.604;2022-12-13T10:29:09;-6.40;99.90
4052;DHT22;2040;50.924;11.604;2022-12-13T10:31:40;-6.30;99.90
4052;DHT22;2040;50.924;11.604;2022-12-13T10:34:25;-6.20;99.90
4052;DHT22;2040;50.924;11.604;2022-12-13T10:36:51;-6.00;99.90
4052;DHT22;2040;50.924;11.604;2022-12-13T10:39:38;-6.00;99.90
4052;DHT22;2040;50.924;11.604;2022-12-13T10:42:17;-5.90;99.90
4052;DHT22;2040;50.924;11.604;2022-12-13T10:44:43;-5.60;99.90
4052;DHT22;2040;50.924;11.604;2022-12-13T10:49:58;-5.40;99.90
4052;DHT22;2040;50.924;11.604;2022-12-13T10:52:27;-5.30;99.90
4052;DHT22;2040;50.924;11.604;2022-12-13T10:54:55;-5.20;99.90
4052;DHT22;2040;50.924;11.604;2022-12-13T10:57:21;-5.10;99.90
4052;DHT22;2040;50.924;11.604;2022-12-13T10:59:48;-4.90;99.90
4052;DHT22;2040;50.924;11.604;2022-12-13T11:02:35;-4.90;99.90
4052;DHT22;2040;50.924;11.604;2022-12-13T11:05:25;-4.80;99.90
4052;DHT22;2040;50.924;11.604;2022-12-13T11:07:51;-5.20;99.90
4052;DHT22;2040;50.924;11.604;2022-12-13T11:10:25;-5.30;99.90
4052;DHT22;2040;50.924;11.604;2022-12-13T11:13:05;-5.20;99.90
4052;DHT22;2040;50.924;11.604;2022-12-13T11:15:34;-5.00;99.90
4052;DHT22;2040;50.924;11.604;2022-12-13T11:18:04;-5.10;99.90
4052;DHT22;2040;50.924;11.604;2022-12-13T11:20:34;-4.70;99.90
4052;DHT22;2040;50.924;11.604;2022-12-13T11:25:54;-4.40;99.90
4052;DHT22;2040;50.924;11.604;2022-12-13T11:39:39;-4.40;99.90
4052;DHT22;2040;50.924;11.604;2022-12-13T11:42:32;-4.20;99.90
4052;DHT22;2040;50.924;11.604;2022-12-13T11:47:37;-4.00;99.90
4052;DHT22;2040;50.924;11.604;2022-12-13T11:50:13;-3.90;99.90
4052;DHT22;2040;50.924;11.604;2022-12-13T11:52:45;-3.50;99.90
4052;DHT22;2040;50.924;11.604;2022-12-13T11:55:23;-3.30;99.90
4052;DHT22;2040;50.924;11.604;2022-12-13T12:03:19;-2.80;99.90
4052;DHT22;2040;50.924;11.604;2022-12-13T12:05:54;-2.60;99.90
4052;DHT22;2040;50.924;11.604;2022-12-13T12:08:36;-2.70;99.90
4052;DHT22;2040;50.924;11.604;2022-12-13T12:11:11;-3.00;99.90
4052;DHT22;2040;50.924;11.604;2022-12-13T12:13:44;-3.20;99.90
4052;DHT22;2040;50.924;11.604;2022-12-13T12:16:32;-3.30;99.90
4052;DHT22;2040;50.924;11.604;2022-12-13T12:19:01;-3.50;99.90
4052;DHT22;2040;50.924;11.604;2022-12-13T12:27:06;-3.10;99.90
4052;DHT22;2040;50.924;11.604;2022-12-13T12:29:43;-2.80;99.90
4052;DHT22;2040;50.924;11.604;2022-12-13T12:34:59;-2.20;99.90
4052;DHT22;2040;50.924;11.604;2022-12-13T12:38:19;-1.90;99.90
4052;DHT22;2040;50.924;11.604;2022-12-13T12:40:40;-1.70;99.90
4052;DHT22;2040;50.924;11.604;2022-12-13T12:44:02;-1.60;99.90
4052;DHT22;2040;50.924;11.604;2022-12-13T12:49:47;-1.90;99.90
4052;DHT22;2040;50.924;11.604;2022-12-13T13:00:22;-0.90;99.90
4052;DHT22;2040;50.924;11.604;2022-12-13T13:05:37;-1.40;99.90
4052;DHT22;2040;50.924;11.604;2022-12-13T13:08:20;-1.70;99.90
4052;DHT22;2040;50.924;11.604;2022-12-13T13:10:48;-1.90;99.90
4052;DHT22;2040;50.924;11.604;2022-12-13T13:16:03;-1.80;99.90
4052;DHT22;2040;50.924;11.604;2022-12-13T13:18:47;-2.00;99.90
4052;DHT22;2040;50.924;11.604;2022-12-13T13:24:12;-2.30;99.90
4052;DHT22;2040;50.924;11.604;2022-12-13T13:26:38;-2.40;99.90
4052;DHT22;2040;50.924;11.604;2022-12-13T13:29:28;-2.80;99.90
4052;DHT22;2040;50.924;11.604;2022-12-13T13:36:58;-2.30;99.90
4052;DHT22;2040;50.924;11.604;2022-12-13T13:42:15;-2.10;99.90
4052;DHT22;2040;50.924;11.604;2022-12-13T13:52:44;-2.00;99.90
4052;DHT22;2040;50.924;11.604;2022-12-13T13:56:07;-2.00;99.90
4052;DHT22;2040;50.924;11.604;2022-12-13T14:09:26;-2.20;99.90
4052;DHT22;2040;50.924;11.604;2022-12-13T14:15:38;-2.90;99.90
4052;DHT22;2040;50.924;11.604;2022-12-13T14:23:36;-3.20;99.90
4052;DHT22;2040;50.924;11.604;2022-12-13T14:28:54;-3.50;99.90
4052;DHT22;2040;50.924;11.604;2022-12-13T14:31:23;-3.70;99.90
4052;DHT22;2040;50.924;11.604;2022-12-13T14:33:54;-3.80;99.90
4052;DHT22;2040;50.924;11.604;2022-12-13T14:36:29;-3.90;99.90
4052;DHT22;2040;50.924;11.604;2022-12-13T14:39:13;-4.10;99.90
4052;DHT22;2040;50.924;11.604;2022-12-13T14:41:50;-4.20;99.90
4052;DHT22;2040;50.924;11.604;2022-12-13T14:46:52;-4.00;99.90
4052;DHT22;2040;50.924;11.604;2022-12-13T14:49:19;-3.70;99.90
4052;DHT22;2040;50.924;11.604;2022-12-13T14:51:46;-3.60;99.90
4052;DHT22;2040;50.924;11.604;2022-12-13T14:54:20;-3.60;99.90
4052;DHT22;2040;50.924;11.604;2022-12-13T14:56:54;-3.70;99.90
4052;DHT22;2040;50.924;11.604;2022-12-13T14:59:21;-4.00;99.90
4052;DHT22;2040;50.924;11.604;2022-12-13T15:01:54;-4.50;99.90
4052;DHT22;2040;50.924;11.604;2022-12-13T15:06:54;-5.10;99.90
4052;DHT22;2040;50.924;11.604;2022-12-13T15:09:23;-5.20;99.90
4052;DHT22;2040;50.924;11.604;2022-12-13T15:11:49;-5.40;99.90
4052;DHT22;2040;50.924;11.604;2022-12-13T15:14:21;-5.50;99.90
4052;DHT22;2040;50.924;11.604;2022-12-13T15:16:49;-5.60;99.90
4052;DHT22;2040;50.924;11.604;2022-12-13T15:19:18;-5.70;99.90
4052;DHT22;2040;50.924;11.604;2022-12-13T15:22:02;-5.80;99.90
4052;DHT22;2040;50.924;11.604;2022-12-13T15:24:35;-5.80;99.90
4052;DHT22;2040;50.924;11.604;2022-12-13T15:27:03;-5.90;99.90
4052;DHT22;2040;50.924;11.604;2022-12-13T15:29:30;-5.90;99.90
4052;DHT22;2040;50.924;11.604;2022-12-13T15:31:56;-5.90;99.90
4052;DHT22;2040;50.924;11.604;2022-12-13T15:37:03;-5.80;99.90
4052;DHT22;2040;50.924;11.604;2022-12-13T15:39:35;-5.70;99.90
4052;DHT22;2040;50.924;11.604;2022-12-13T15:42:01;-5.90;99.90
4052;DHT22;2040;50.924;11.604;2022-12-13T15:44:29;-5.90;99.90
4052;DHT22;2040;50.924;11.604;2022-12-13T15:47:01;-5.90;99.90
4052;DHT22;2040;50.924;11.604;2022-12-13T15:49:35;-6.10;99.90
4052;DHT22;2040;50.924;11.604;2022-12-13T15:52:21;-6.20;99.90
4052;DHT22;2040;50.924;11.604;2022-12-13T15:57:32;-6.30;99.90
4052;DHT22;2040;50.924;11.604;2022-12-13T16:05:28;-6.40;99.90
4052;DHT22;2040;50.924;11.604;2022-12-13T16:07:57;-6.40;99.90
4052;DHT22;2040;50.924;11.604;2022-12-13T16:10:23;-6.50;99.90
4052;DHT22;2040;50.924;11.604;2022-12-13T16:12:52;-6.60;99.90
4052;DHT22;2040;50.924;11.604;2022-12-13T16:15:22;-6.80;99.90
4052;DHT22;2040;50.924;11.604;2022-12-13T16:18:11;-6.80;99.90
4052;DHT22;2040;50.924;11.604;2022-12-13T16:20:38;-6.80;99.90
4052;DHT22;2040;50.924;11.604;2022-12-13T16:23:04;-6.80;99.90
4052;DHT22;2040;50.924;11.604;2022-12-13T16:25:29;-6.90;99.90
4052;DHT22;2040;50.924;11.604;2022-12-13T16:27:56;-6.90;99.90
4052;DHT22;2040;50.924;11.604;2022-12-13T16:30:25;-6.90;99.90
4052;DHT22;2040;50.924;11.604;2022-12-13T16:32:51;-7.00;99.90
4052;DHT22;2040;50.924;11.604;2022-12-13T16:35:19;-7.00;99.90
4052;DHT22;2040;50.924;11.604;2022-12-13T16:37:44;-7.00;99.90
4052;DHT22;2040;50.924;11.604;2022-12-13T16:40:21;-7.10;99.90
4052;DHT22;2040;50.924;11.604;2022-12-13T16:42:48;-7.10;99.90
4052;DHT22;2040;50.924;11.604;2022-12-13T16:45:14;-7.20;99.90
4052;DHT22;2040;50.924;11.604;2022-12-13T16:47:39;-7.20;99.90
4052;DHT22;2040;50.924;11.604;2022-12-13T16:50:14;-7.30;99.90
4052;DHT22;2040;50.924;11.604;2022-12-13T16:52:40;-7.30;99.90
4052;DHT22;2040;50.924;11.604;2022-12-13T16:55:07;-7.40;99.90
4052;DHT22;2040;50.924;11.604;2022-12-13T16:57:33;-7.50;99.90
4052;DHT22;2040;50.924;11.604;2022-12-13T16:59:58;-7.60;99.90
4052;DHT22;2040;50.924;11.604;2022-12-13T17:02:24;-7.60;99.90
4052;DHT22;2040;50.924;11.604;2022-12-13T17:04:49;-7.50;99.90
4052;DHT22;2040;50.924;11.604;2022-12-13T17:07:15;-7.40;99.90
4052;DHT22;2040;50.924;11.604;2022-12-13T17:09:41;-7.50;99.90
4052;DHT22;2040;50.924;11.604;2022-12-13T17:12:07;-7.50;99.90
4052;DHT22;2040;50.924;11.604;2022-12-13T17:14:33;-7.60;99.90
4052;DHT22;2040;50.924;11.604;2022-12-13T17:16:58;-7.60;99.90
4052;DHT22;2040;50.924;11.604;2022-12-13T17:19:24;-7.70;99.90
4052;DHT22;2040;50.924;11.604;2022-12-13T17:21:50;-7.70;99.90
4052;DHT22;2040;50.924;11.604;2022-12-13T17:24:15;-7.80;99.90
4052;DHT22;2040;50.924;11.604;2022-12-13T17:26:41;-7.80;99.90
4052;DHT22;2040;50.924;11.604;2022-12-13T17:29:06;-7.80;99.90
4052;DHT22;2040;50.924;11.604;2022-12-13T17:31:32;-7.90;99.90
4052;DHT22;2040;50.924;11.604;2022-12-13T17:33:58;-7.90;99.90
4052;DHT22;2040;50.924;11.604;2022-12-13T17:36:24;-8.00;99.90
4052;DHT22;2040;50.924;11.604;2022-12-13T17:38:51;-7.90;99.90
4052;DHT22;2040;50.924;11.604;2022-12-13T17:41:17;-7.90;99.90
4052;DHT22;2040;50.924;11.604;2022-12-13T17:43:43;-7.90;99.90
4052;DHT22;2040;50.924;11.604;2022-12-13T17:46:14;-7.90;99.90
4052;DHT22;2040;50.924;11.604;2022-12-13T17:48:40;-7.90;99.90
4052;DHT22;2040;50.924;11.604;2022-12-13T17:51:08;-7.90;99.90
4052;DHT22;2040;50.924;11.604;2022-12-13T17:53:34;-7.90;99.90
4052;DHT22;2040;50.924;11.604;2022-12-13T17:56:02;-7.90;99.90
4052;DHT22;2040;50.924;11.604;2022-12-13T17:58:29;-7.90;99.90
4052;DHT22;2040;50.924;11.604;2022-12-13T18:00:57;-7.80;99.90
4052;DHT22;2040;50.924;11.604;2022-12-13T18:03:23;-7.70;99.90
4052;DHT22;2040;50.924;11.604;2022-12-13T18:05:56;-7.80;99.90
4052;DHT22;2040;50.924;11.604;2022-12-13T18:08:22;-7.90;99.90
4052;DHT22;2040;50.924;11.604;2022-12-13T18:10:55;-8.00;99.90